Deo Volente — PHFJ — position and weather

sailwx.info

Track history (hours):
 
Tides and Currents Weather Stations Pressure Air Temp Water Temp Dewpoint Dewpoint Depression Visibility Wind Speed Wind Dir Waves Ship Positions

Deo Volente

Last reported at 2015-May-27 06:15 UTC. Time now 2015-May-29 08:14 UTC.
Position N 39°43' E 019°02'.

Length 105 m; draft 5.1 m.

Type: Cargo ship. MMSI: 246518000.

Date/timePositionNaut miles runAvg speedWind from/ knotsBaromVisibWave heightAir tempDewpointWater temp
2015-May-27 06:15N 39°43' E 019°02'1315.6
2015-May-27 05:26N 39°32' E 019°10'1516.0
2015-May-27 04:32N 39°20' E 019°19'1616.1
2015-May-27 03:33N 39°06' E 019°28'23414.6
2015-May-26 11:33N 36°25' E 023°03'6715.7
2015-May-26 07:17N 37°18' E 023°55'3116.0
2015-May-26 05:20N 37°44' E 024°16'14115.4
2015-May-25 20:13N 39°45' E 025°48'8 0.3
2015-May-24 20:19N 39°52' E 025°53'13912.5
2015-May-24 09:14N 37°33' E 025°55'812.5
2015-May-24 08:33N 37°26' E 026°01'1612.4
2015-May-24 07:16N 37°15' E 026°16'1112.7
2015-May-24 06:25N 37°08' E 026°26'2512.7
2015-May-24 04:26N 36°48' E 026°46'2412.5
2015-May-24 02:32N 36°32' E 027°08'1312.9
2015-May-24 01:33N 36°31' E 027°23'6 0.2
2015-May-22 21:33N 36°30' E 027°31'1212.5
2015-May-22 20:33N 36°31' E 027°15'1312.7
2015-May-22 19:33N 36°32' E 026°60'1212.0
2015-May-22 18:33N 36°31' E 026°45'1212.0
2015-May-22 17:33N 36°29' E 026°30'1211.8
2015-May-22 16:33N 36°28' E 026°15'1211.8
2015-May-22 15:33N 36°29' E 026°01'1212.3
2015-May-22 14:33N 36°30' E 025°46'1211.9
2015-May-22 13:33N 36°32' E 025°31'1212.5
2015-May-22 12:33N 36°33' E 025°16'1212.2
2015-May-22 11:33N 36°32' E 025°01'33312.7
2015-May-21 09:23N 37°20' E 018°09'3912.9
2015-May-21 06:22N 37°31' E 017°22'1113.7
2015-May-21 05:33N 37°35' E 017°08'4314.2
2015-May-21 02:33N 37°47' E 016°17'1513.8
2015-May-21 01:29N 37°51' E 015°59'1314.0
2015-May-21 00:34N 37°54' E 015°43'1313.1
2015-May-20 23:34N 38°06' E 015°35'1212.5
2015-May-20 22:33N 38°18' E 015°39'1514.5
2015-May-20 21:33N 38°28' E 015°26'1514.2
2015-May-20 20:28N 38°39' E 015°12'1414.3
2015-May-20 19:32N 38°49' E 015°00'1414.2
2015-May-20 18:33N 38°59' E 014°48'1413.9
2015-May-20 17:33N 39°09' E 014°36'1313.0
2015-May-20 16:33N 39°19' E 014°24'1413.2
2015-May-20 15:29N 39°29' E 014°12'1313.7
2015-May-20 14:32N 39°38' E 013°60'1413.9
2015-May-20 13:33N 39°48' E 013°48'1413.6
2015-May-20 12:33N 39°58' E 013°36'1513.2
2015-May-20 11:27N 40°08' E 013°22'1813.3
2015-May-20 10:07N 40°21' E 013°06'713.1
2015-May-20 09:33N 40°26' E 012°59'2713.5
2015-May-20 07:33N 40°46' E 012°35'1414.1
2015-May-20 06:33N 40°56' E 012°22'1414.2
2015-May-20 05:33N 41°06' E 012°09'7014.0
2015-May-20 00:32N 41°57' E 011°04'2914.1
2015-May-19 22:28N 42°18' E 010°37'1314.4
2015-May-19 21:33N 42°27' E 010°24'1714.6
2015-May-19 20:25N 42°39' E 010°09'1914.2
2015-May-19 19:05N 42°51' E 009°49'5414.4
2015-May-19 15:22N 43°16' E 008°44'1514.4
2015-May-19 14:17N 43°21' E 008°24'1313.8
2015-May-19 13:22N 43°26' E 008°07'1114.0
2015-May-19 12:32N 43°30' E 007°52'2713.5
2015-May-19 10:33N 43°40' E 007°18'2 1.9
2015-May-19 09:33N 43°42' E 007°17'0 0.0
2015-May-19 08:33N 43°42' E 007°17'0 0.0
2015-May-19 07:33N 43°42' E 007°17'0 0.0
2015-May-19 06:33N 43°42' E 007°17'0 0.0
2015-May-19 05:33N 43°42' E 007°17'0 0.0
2015-May-19 04:33N 43°42' E 007°17'0 0.0
2015-May-19 03:33N 43°42' E 007°17'0 0.0
2015-May-19 02:33N 43°42' E 007°17'0 0.0
2015-May-19 01:33N 43°42' E 007°17'0 0.0
2015-May-19 00:33N 43°42' E 007°17'0 0.0
2015-May-18 23:33N 43°42' E 007°17'0 0.0
2015-May-18 22:33N 43°42' E 007°17'1 1.3
2015-May-18 21:33N 43°40' E 007°17'1212.3
2015-May-18 20:33N 43°31' E 007°07'1413.6
2015-May-18 19:34N 43°20' E 006°56'1613.8
2015-May-18 18:23N 43°07' E 006°42'6112.3
2015-May-18 13:28N 43°11' E 005°19'1011.4
2015-May-18 12:33N 43°21' E 005°18'1 1.4
2015-May-18 11:33N 43°21' E 005°20'0 0.0
2015-May-18 10:34N 43°21' E 005°20'0 0.0
2015-May-18 09:34N 43°21' E 005°20'0 0.0
2015-May-18 08:33N 43°21' E 005°20'0 0.0
2015-May-18 07:33N 43°21' E 005°20'0 0.0
2015-May-18 06:34N 43°21' E 005°20'0 0.0
2015-May-18 05:33N 43°21' E 005°20'0 0.5
2015-May-18 04:34N 43°21' E 005°20'9 8.8
2015-May-18 03:33N 43°15' E 005°11'13010.4
2015-May-17 15:04N 41°38' E 003°14'610.9
2015-May-17 14:33N 41°32' E 003°14'1211.8
2015-May-17 13:32N 41°20' E 003°13'1312.1
2015-May-17 12:27N 41°07' E 003°13'1111.8
2015-May-17 11:33N 40°57' E 003°13'1211.7
2015-May-17 10:33N 40°45' E 003°13'1111.0
2015-May-17 09:33N 40°34' E 003°13'1111.0
2015-May-17 08:33N 40°23' E 003°13'  
Track history (hours):
 
Tides and Currents Weather Stations Pressure Air Temp Water Temp Dewpoint Dewpoint Depression Visibility Wind Speed Wind Dir Waves Ship Positions

Deo Volente

Last reported at 2015-May-27 06:15 UTC. Time now 2015-May-29 08:14 UTC.
Position N 39°43' E 019°02'.

Length 105 m; draft 5.1 m.

Type: Cargo ship. MMSI: 246518000.

Date/timePositionNaut miles runAvg speedWind from/ knotsBaromVisibWave heightAir tempDewpointWater temp
2015-May-27 06:15N 39°43' E 019°02'1315.6
2015-May-27 05:26N 39°32' E 019°10'1516.0
2015-May-27 04:32N 39°20' E 019°19'1616.1
2015-May-27 03:33N 39°06' E 019°28'23414.6
2015-May-26 11:33N 36°25' E 023°03'6715.7
2015-May-26 07:17N 37°18' E 023°55'3116.0
2015-May-26 05:20N 37°44' E 024°16'14115.4
2015-May-25 20:13N 39°45' E 025°48'8 0.3
2015-May-24 20:19N 39°52' E 025°53'13912.5
2015-May-24 09:14N 37°33' E 025°55'812.5
2015-May-24 08:33N 37°26' E 026°01'1612.4
2015-May-24 07:16N 37°15' E 026°16'1112.7
2015-May-24 06:25N 37°08' E 026°26'2512.7
2015-May-24 04:26N 36°48' E 026°46'2412.5
2015-May-24 02:32N 36°32' E 027°08'1312.9
2015-May-24 01:33N 36°31' E 027°23'6 0.2
2015-May-22 21:33N 36°30' E 027°31'1212.5
2015-May-22 20:33N 36°31' E 027°15'1312.7
2015-May-22 19:33N 36°32' E 026°60'1212.0
2015-May-22 18:33N 36°31' E 026°45'1212.0
2015-May-22 17:33N 36°29' E 026°30'1211.8
2015-May-22 16:33N 36°28' E 026°15'1211.8
2015-May-22 15:33N 36°29' E 026°01'1212.3
2015-May-22 14:33N 36°30' E 025°46'1211.9
2015-May-22 13:33N 36°32' E 025°31'1212.5
2015-May-22 12:33N 36°33' E 025°16'1212.2
2015-May-22 11:33N 36°32' E 025°01'33312.7
2015-May-21 09:23N 37°20' E 018°09'3912.9
2015-May-21 06:22N 37°31' E 017°22'1113.7
2015-May-21 05:33N 37°35' E 017°08'4314.2
2015-May-21 02:33N 37°47' E 016°17'1513.8
2015-May-21 01:29N 37°51' E 015°59'1314.0
2015-May-21 00:34N 37°54' E 015°43'1313.1
2015-May-20 23:34N 38°06' E 015°35'1212.5
2015-May-20 22:33N 38°18' E 015°39'1514.5
2015-May-20 21:33N 38°28' E 015°26'1514.2
2015-May-20 20:28N 38°39' E 015°12'1414.3
2015-May-20 19:32N 38°49' E 015°00'1414.2
2015-May-20 18:33N 38°59' E 014°48'1413.9
2015-May-20 17:33N 39°09' E 014°36'1313.0
2015-May-20 16:33N 39°19' E 014°24'1413.2
2015-May-20 15:29N 39°29' E 014°12'1313.7
2015-May-20 14:32N 39°38' E 013°60'1413.9
2015-May-20 13:33N 39°48' E 013°48'1413.6
2015-May-20 12:33N 39°58' E 013°36'1513.2
2015-May-20 11:27N 40°08' E 013°22'1813.3
2015-May-20 10:07N 40°21' E 013°06'713.1
2015-May-20 09:33N 40°26' E 012°59'2713.5
2015-May-20 07:33N 40°46' E 012°35'1414.1
2015-May-20 06:33N 40°56' E 012°22'1414.2
2015-May-20 05:33N 41°06' E 012°09'7014.0
2015-May-20 00:32N 41°57' E 011°04'2914.1
2015-May-19 22:28N 42°18' E 010°37'1314.4
2015-May-19 21:33N 42°27' E 010°24'1714.6
2015-May-19 20:25N 42°39' E 010°09'1914.2
2015-May-19 19:05N 42°51' E 009°49'5414.4
2015-May-19 15:22N 43°16' E 008°44'1514.4
2015-May-19 14:17N 43°21' E 008°24'1313.8
2015-May-19 13:22N 43°26' E 008°07'1114.0
2015-May-19 12:32N 43°30' E 007°52'2713.5
2015-May-19 10:33N 43°40' E 007°18'2 1.9
2015-May-19 09:33N 43°42' E 007°17'0 0.0
2015-May-19 08:33N 43°42' E 007°17'0 0.0
2015-May-19 07:33N 43°42' E 007°17'0 0.0
2015-May-19 06:33N 43°42' E 007°17'0 0.0
2015-May-19 05:33N 43°42' E 007°17'0 0.0
2015-May-19 04:33N 43°42' E 007°17'0 0.0
2015-May-19 03:33N 43°42' E 007°17'0 0.0
2015-May-19 02:33N 43°42' E 007°17'0 0.0
2015-May-19 01:33N 43°42' E 007°17'0 0.0
2015-May-19 00:33N 43°42' E 007°17'0 0.0
2015-May-18 23:33N 43°42' E 007°17'0 0.0
2015-May-18 22:33N 43°42' E 007°17'1 1.3
2015-May-18 21:33N 43°40' E 007°17'1212.3
2015-May-18 20:33N 43°31' E 007°07'1413.6
2015-May-18 19:34N 43°20' E 006°56'1613.8
2015-May-18 18:23N 43°07' E 006°42'6112.3
2015-May-18 13:28N 43°11' E 005°19'1011.4
2015-May-18 12:33N 43°21' E 005°18'1 1.4
2015-May-18 11:33N 43°21' E 005°20'0 0.0
2015-May-18 10:34N 43°21' E 005°20'0 0.0
2015-May-18 09:34N 43°21' E 005°20'0 0.0
2015-May-18 08:33N 43°21' E 005°20'0 0.0
2015-May-18 07:33N 43°21' E 005°20'0 0.0
2015-May-18 06:34N 43°21' E 005°20'0 0.0
2015-May-18 05:33N 43°21' E 005°20'0 0.5
2015-May-18 04:34N 43°21' E 005°20'9 8.8
2015-May-18 03:33N 43°15' E 005°11'13010.4
2015-May-17 15:04N 41°38' E 003°14'610.9
2015-May-17 14:33N 41°32' E 003°14'1211.8
2015-May-17 13:32N 41°20' E 003°13'1312.1
2015-May-17 12:27N 41°07' E 003°13'1111.8
2015-May-17 11:33N 40°57' E 003°13'1211.7
2015-May-17 10:33N 40°45' E 003°13'1111.0
2015-May-17 09:33N 40°34' E 003°13'1111.0
2015-May-17 08:33N 40°23' E 003°13'  

Dump ship's entire track history